createdAt,value
2023-07-02T00:02:54.641Z,15.77
2023-07-02T00:06:29.567Z,17.20
2023-07-02T00:09:49.380Z,17.15
2023-07-02T00:12:59.257Z,17.17
2023-07-02T00:16:28.099Z,17.83
2023-07-02T00:19:44.097Z,16.60
2023-07-02T00:23:47.822Z,17.25
2023-07-02T00:27:54.050Z,18.13
2023-07-02T00:31:51.974Z,17.73
2023-07-02T00:35:03.534Z,16.92
2023-07-02T00:38:29.285Z,17.33
2023-07-02T00:42:52.865Z,17.35
2023-07-02T00:45:16.719Z,17.85
2023-07-02T00:48:29.273Z,17.30
2023-07-02T00:52:04.600Z,17.50
2023-07-02T00:56:01.179Z,18.60
2023-07-02T00:59:13.568Z,16.65
2023-07-02T01:02:11.693Z,20.17
2023-07-02T01:05:16.237Z,19.45
2023-07-02T01:08:32.136Z,19.25
2023-07-02T01:11:41.286Z,18.52
2023-07-02T01:15:42.149Z,19.10
2023-07-02T01:19:10.944Z,19.38
2023-07-02T01:22:41.019Z,19.52
2023-07-02T01:25:55.978Z,19.83
2023-07-02T01:30:19.511Z,19.35
2023-07-02T01:37:49.684Z,25.08
2023-07-02T01:41:09.662Z,24.67
2023-07-02T01:44:07.371Z,25.25
2023-07-02T01:47:24.723Z,25.80
2023-07-02T01:50:54.584Z,25.80
2023-07-02T02:01:20.631Z,25.48
2023-07-02T02:04:16.954Z,25.88
2023-07-02T02:11:17.189Z,27.52
2023-07-02T02:14:29.368Z,26.27
2023-07-02T02:17:34.718Z,26.27
2023-07-02T02:20:39.287Z,26.15
2023-07-02T02:23:06.659Z,25.33
2023-07-02T02:23:37.004Z,22.35
2023-07-02T02:26:52.494Z,24.67
2023-07-02T02:29:59.058Z,24.75
2023-07-02T02:33:10.762Z,25.40
2023-07-02T02:36:32.366Z,21.50
2023-07-02T02:39:55.754Z,22.83
2023-07-02T02:43:12.479Z,22.70
2023-07-02T02:49:49.112Z,19.77
2023-07-02T02:53:11.546Z,23.13
2023-07-02T02:56:14.720Z,21.60
2023-07-02T02:59:36.543Z,21.05
2023-07-02T03:02:49.833Z,23.70
2023-07-02T03:06:20.767Z,20.48
2023-07-02T03:13:12.925Z,20.73
2023-07-02T03:16:21.478Z,23.42
2023-07-02T03:23:14.419Z,22.73
2023-07-02T03:26:34.236Z,24.80
2023-07-02T03:29:50.560Z,23.30
2023-07-02T03:32:59.962Z,21.25
2023-07-02T03:36:04.899Z,22.30
2023-07-02T03:42:40.779Z,23.15
2023-07-02T03:45:57.594Z,21.73
2023-07-02T03:49:01.293Z,21.70
2023-07-02T03:51:54.476Z,20.23
2023-07-02T03:55:17.880Z,20.33
2023-07-02T04:01:58.100Z,18.65
2023-07-02T04:05:31.570Z,18.58
2023-07-02T04:08:49.879Z,19.05
2023-07-02T04:12:20.983Z,19.15
2023-07-02T04:16:24.702Z,17.40
2023-07-02T04:19:52.788Z,19.02
2023-07-02T04:27:07.761Z,18.42
2023-07-02T04:29:59.796Z,18.63
2023-07-02T04:33:17.105Z,17.55
2023-07-02T04:36:21.299Z,18.10
2023-07-02T04:39:17.293Z,17.75
2023-07-02T04:42:49.725Z,16.75
2023-07-02T04:46:01.784Z,17.58
2023-07-02T04:49:25.271Z,13.85
2023-07-02T04:56:08.716Z,14.18
2023-07-02T04:59:49.444Z,13.75
2023-07-02T05:02:56.845Z,13.15
2023-07-02T05:09:46.094Z,13.63
2023-07-02T05:12:16.972Z,13.77
2023-07-02T05:13:01.353Z,12.00
2023-07-02T05:16:02.558Z,11.20
2023-07-02T05:19:17.861Z,11.02
2023-07-02T05:22:43.661Z,11.40
2023-07-02T05:26:11.693Z,10.30
2023-07-02T05:30:02.376Z,9.13
2023-07-02T05:33:26.050Z,7.63
2023-07-02T05:40:22.475Z,7.07
2023-07-02T05:43:30.298Z,6.05
2023-07-02T05:46:56.663Z,5.50
2023-07-02T05:50:21.986Z,4.82
2023-07-02T05:53:29.085Z,4.65
2023-07-02T05:56:33.136Z,4.38
2023-07-02T06:00:14.841Z,3.85
2023-07-02T06:03:35.353Z,3.83
2023-07-02T06:07:03.684Z,4.00
2023-07-02T06:10:06.236Z,3.00
2023-07-02T06:16:43.481Z,3.10
2023-07-02T06:19:50.158Z,3.47
2023-07-02T06:22:49.818Z,2.90
2023-07-02T06:25:52.704Z,3.53
2023-07-02T06:29:01.886Z,3.25
2023-07-02T06:39:23.459Z,2.90
2023-07-02T06:42:45.646Z,3.00
2023-07-02T06:45:47.232Z,3.85
2023-07-02T06:49:09.363Z,3.65
2023-07-02T06:55:40.347Z,3.20
2023-07-02T06:58:41.158Z,3.65
2023-07-02T07:01:57.591Z,3.33
2023-07-02T07:04:59.932Z,3.50
2023-07-02T07:08:13.449Z,4.82
2023-07-02T07:12:05.674Z,3.90
2023-07-02T07:18:30.513Z,3.10
2023-07-02T07:21:38.546Z,3.63
2023-07-02T07:25:06.234Z,3.15
2023-07-02T07:32:18.349Z,3.25
2023-07-02T07:35:47.454Z,3.60
2023-07-02T07:42:29.905Z,3.42
2023-07-02T07:52:26.520Z,4.40
2023-07-02T07:55:42.093Z,3.80
2023-07-02T07:58:54.998Z,3.75
2023-07-02T08:02:13.215Z,4.18
2023-07-02T08:05:46.636Z,5.50
2023-07-02T08:10:18.558Z,5.95
2023-07-02T08:16:20.051Z,5.43
2023-07-02T08:19:36.357Z,6.65
2023-07-02T08:23:07.119Z,7.35
2023-07-02T08:26:31.742Z,7.72
2023-07-02T08:29:55.126Z,7.93
2023-07-02T08:34:10.725Z,7.20
2023-07-02T08:36:24.738Z,7.50
2023-07-02T08:39:34.413Z,8.43
2023-07-02T08:47:08.749Z,8.32
2023-07-02T08:53:53.787Z,8.07
2023-07-02T09:04:22.378Z,5.18
2023-07-02T09:11:09.683Z,6.25
2023-07-02T09:14:18.065Z,6.88
2023-07-02T09:18:12.050Z,5.32
2023-07-02T09:21:23.848Z,5.47
2023-07-02T09:24:48.029Z,5.47
2023-07-02T09:32:58.398Z,5.32
2023-07-02T09:35:26.770Z,5.15
2023-07-02T09:39:31.221Z,5.53
2023-07-02T09:46:32.726Z,4.40
2023-07-02T09:49:52.152Z,4.03
2023-07-02T09:56:46.769Z,4.70
2023-07-02T10:00:39.519Z,4.35
2023-07-02T10:07:49.853Z,3.92
2023-07-02T10:11:08.841Z,3.20
2023-07-02T10:14:22.762Z,2.90
2023-07-02T10:17:35.139Z,2.40
2023-07-02T10:21:30.974Z,2.97
2023-07-02T10:24:50.065Z,3.08
2023-07-02T10:28:29.067Z,3.25
2023-07-02T10:31:53.832Z,2.88
2023-07-02T10:35:44.682Z,3.75
2023-07-02T10:39:39.366Z,3.47
2023-07-02T10:42:48.006Z,3.20
2023-07-02T10:49:26.281Z,2.97
2023-07-02T10:52:52.763Z,3.58
2023-07-02T10:56:39.242Z,3.53
2023-07-02T11:00:15.431Z,3.03
2023-07-02T11:04:07.565Z,2.83
2023-07-02T11:07:23.838Z,2.35
2023-07-02T11:10:55.194Z,2.50
2023-07-02T11:14:22.592Z,2.33
2023-07-02T11:17:50.784Z,2.35
2023-07-02T11:24:21.456Z,2.05
2023-07-02T11:31:23.874Z,2.35
2023-07-02T11:34:51.217Z,3.20
2023-07-02T11:38:17.805Z,2.92
2023-07-02T11:41:36.109Z,2.15
2023-07-02T11:45:07.422Z,2.63
2023-07-02T11:48:14.074Z,2.92
2023-07-02T11:51:35.683Z,3.08
2023-07-02T11:54:40.264Z,2.78
2023-07-02T11:57:50.726Z,3.20
2023-07-02T12:01:15.065Z,2.40
2023-07-02T12:04:15.849Z,2.67
2023-07-02T12:07:21.838Z,2.38
2023-07-02T12:10:38.983Z,2.97
2023-07-02T12:14:00.301Z,3.53
2023-07-02T12:17:06.333Z,2.90
2023-07-02T12:20:23.783Z,3.80
2023-07-02T12:24:11.744Z,3.17
2023-07-02T12:27:25.597Z,2.75
2023-07-02T12:30:27.681Z,3.42
2023-07-02T12:33:58.485Z,2.85
2023-07-02T12:37:19.962Z,3.45
2023-07-02T12:44:22.631Z,4.07
2023-07-02T12:47:33.490Z,4.00
2023-07-02T12:51:05.713Z,4.38
2023-07-02T12:55:25.341Z,3.50
2023-07-02T13:01:09.249Z,3.33
2023-07-02T13:04:40.698Z,3.72
2023-07-02T13:07:45.619Z,3.30
2023-07-02T13:14:41.608Z,3.63
2023-07-02T13:17:38.859Z,3.72
2023-07-02T13:25:55.011Z,4.43
2023-07-02T13:29:29.522Z,4.55
2023-07-02T13:32:31.793Z,3.83
2023-07-02T13:35:58.381Z,4.63
2023-07-02T13:39:52.708Z,4.03
2023-07-02T13:43:05.713Z,4.25
2023-07-02T13:46:29.996Z,4.00
2023-07-02T13:49:50.270Z,3.80
2023-07-02T13:53:04.801Z,4.47
2023-07-02T13:56:35.803Z,4.85
2023-07-02T14:00:38.793Z,4.40
2023-07-02T14:04:21.635Z,4.18
2023-07-02T14:08:05.575Z,4.65
2023-07-02T14:11:18.305Z,5.15
2023-07-02T14:14:26.413Z,4.95
2023-07-02T14:17:54.169Z,4.90
2023-07-02T14:21:02.289Z,4.68
2023-07-02T14:24:55.370Z,4.35
2023-07-02T14:28:17.603Z,4.78
2023-07-02T14:31:50.376Z,4.80
2023-07-02T14:34:56.609Z,4.68
2023-07-02T14:42:00.299Z,5.03
2023-07-02T14:46:22.899Z,4.00
2023-07-02T14:49:37.715Z,3.97
2023-07-02T14:52:54.806Z,4.75
2023-07-02T14:56:15.269Z,5.10
2023-07-02T14:59:29.306Z,4.72
2023-07-02T15:02:48.018Z,4.88
2023-07-02T15:06:04.088Z,5.10
2023-07-02T15:09:18.190Z,4.32
2023-07-02T15:12:35.560Z,4.90
2023-07-02T15:16:11.844Z,4.85
2023-07-02T15:20:00.410Z,4.55
2023-07-02T15:23:43.980Z,5.07
2023-07-02T15:27:15.459Z,4.85
2023-07-02T15:30:31.286Z,4.85
2023-07-02T15:33:55.444Z,5.70
2023-07-02T15:37:15.254Z,5.13
2023-07-02T15:44:23.271Z,4.53
2023-07-02T15:47:50.064Z,4.13
2023-07-02T15:54:50.327Z,4.22
2023-07-02T15:58:12.953Z,4.03
2023-07-02T16:04:31.961Z,3.85
2023-07-02T16:07:54.702Z,3.33
2023-07-02T16:11:05.702Z,3.22
2023-07-02T16:14:08.125Z,3.40
2023-07-02T16:17:50.602Z,3.33
2023-07-02T16:21:18.347Z,3.42
2023-07-02T16:27:40.385Z,3.13
2023-07-02T16:30:57.321Z,3.60
2023-07-02T16:34:10.267Z,2.83
2023-07-02T16:44:56.935Z,3.35
2023-07-02T16:48:23.413Z,2.53
2023-07-02T16:52:46.766Z,3.03
2023-07-02T16:56:10.062Z,2.88
2023-07-02T16:59:24.904Z,2.45
2023-07-02T17:02:26.229Z,3.00
2023-07-02T17:05:48.395Z,2.78
2023-07-02T17:12:19.236Z,2.45
2023-07-02T17:16:03.451Z,2.22
2023-07-02T17:19:27.691Z,2.47
2023-07-02T17:22:40.543Z,2.30
2023-07-02T17:25:52.846Z,2.58
2023-07-02T17:29:16.380Z,2.50
2023-07-02T17:32:43.285Z,1.85
2023-07-02T17:35:56.494Z,2.15
2023-07-02T17:39:05.655Z,2.08
2023-07-02T17:46:46.744Z,3.05
2023-07-02T17:50:39.831Z,2.55
2023-07-02T17:55:22.345Z,2.38
2023-07-02T17:58:13.085Z,1.52
2023-07-02T18:04:58.567Z,2.17
2023-07-02T18:08:11.201Z,2.55
2023-07-02T18:14:50.222Z,2.33
2023-07-02T18:18:00.823Z,2.50
2023-07-02T18:21:40.447Z,2.33
2023-07-02T18:24:45.891Z,2.25
2023-07-02T18:35:43.832Z,1.45
2023-07-02T18:38:42.178Z,1.50
2023-07-02T18:41:49.760Z,2.40
2023-07-02T18:45:12.924Z,2.20
2023-07-02T18:48:57.476Z,2.47
2023-07-02T18:52:39.463Z,1.65
2023-07-02T18:55:53.499Z,2.00
2023-07-02T18:59:11.306Z,2.83
2023-07-02T19:02:14.533Z,1.95
2023-07-02T19:05:27.815Z,1.80
2023-07-02T19:09:23.476Z,2.53
2023-07-02T19:19:18.662Z,1.90
2023-07-02T19:23:15.933Z,1.60
2023-07-02T19:26:25.996Z,1.73
2023-07-02T19:33:05.896Z,2.03
2023-07-02T19:36:19.571Z,2.08
2023-07-02T19:39:31.793Z,2.10
2023-07-02T19:45:53.329Z,1.90
2023-07-02T19:49:37.604Z,2.90
2023-07-02T19:55:54.578Z,2.28
2023-07-02T19:59:29.287Z,1.92
2023-07-02T20:02:39.931Z,2.13
2023-07-02T20:05:49.656Z,2.03
2023-07-02T20:09:24.740Z,2.67
2023-07-02T20:17:28.746Z,2.42
2023-07-02T20:23:17.220Z,2.10
2023-07-02T20:29:57.055Z,1.80
2023-07-02T20:33:10.302Z,1.50
2023-07-02T20:36:18.564Z,1.42
2023-07-02T20:39:39.259Z,1.50
2023-07-02T20:42:45.623Z,1.67
2023-07-02T20:46:18.762Z,2.58
2023-07-02T20:50:23.999Z,1.77
2023-07-02T20:53:31.865Z,1.30
2023-07-02T20:56:54.210Z,2.30
2023-07-02T20:59:57.881Z,1.63
2023-07-02T21:03:13.570Z,1.80
2023-07-02T21:10:05.124Z,1.90
2023-07-02T21:13:19.551Z,2.22
2023-07-02T21:16:24.107Z,2.15
2023-07-02T21:19:48.185Z,1.83
2023-07-02T21:22:55.333Z,1.45
2023-07-02T21:26:11.496Z,1.90
2023-07-02T21:29:36.522Z,2.38
2023-07-02T21:32:55.485Z,2.10
2023-07-02T21:36:19.787Z,2.45
2023-07-02T21:39:45.663Z,3.00
2023-07-02T21:42:50.413Z,1.85
2023-07-02T21:46:11.873Z,1.63
2023-07-02T21:49:06.048Z,2.30
2023-07-02T21:52:05.038Z,1.95
2023-07-02T21:55:22.366Z,2.38
2023-07-02T21:58:34.044Z,2.30
2023-07-02T22:01:51.715Z,2.60
2023-07-02T22:04:52.245Z,2.25
2023-07-02T22:14:50.820Z,2.83
2023-07-02T22:18:01.429Z,1.80
2023-07-02T22:21:08.014Z,2.72
2023-07-02T22:24:08.845Z,2.67
2023-07-02T22:27:23.800Z,2.70
2023-07-02T22:30:56.632Z,2.20
2023-07-02T22:34:35.763Z,3.17
2023-07-02T22:37:51.742Z,2.72
2023-07-02T22:43:59.603Z,3.13
2023-07-02T22:47:53.544Z,3.05
2023-07-02T22:50:50.692Z,2.97
2023-07-02T22:54:21.995Z,2.97
2023-07-02T22:57:38.368Z,2.72
2023-07-02T23:01:08.104Z,3.28
2023-07-02T23:04:20.693Z,3.55
2023-07-02T23:07:29.625Z,3.50
2023-07-02T23:10:48.910Z,3.30
2023-07-02T23:13:57.780Z,2.67
2023-07-02T23:16:57.318Z,2.83
2023-07-02T23:20:13.762Z,2.70
2023-07-02T23:24:09.950Z,2.63
2023-07-02T23:27:38.420Z,3.58
2023-07-02T23:30:48.242Z,3.20
2023-07-02T23:34:05.088Z,3.10
2023-07-02T23:37:37.897Z,4.85
2023-07-02T23:40:54.498Z,3.58
2023-07-02T23:44:26.873Z,3.42
2023-07-02T23:47:50.998Z,3.65
2023-07-02T23:51:18.049Z,3.33
2023-07-02T23:54:34.347Z,5.47
2023-07-02T23:57:46.674Z,5.18
